Time;durP1;ratioP1;P1;durP2;ratioP2;P2;SDS_P1;SDS_P2;PMS_P1;PMS_P2;Temp;Humidity;BMP_temperature;BMP_pressure;BME280_temperature;BME280_humidity;BME280_pressure;Samples;Min_cycle;Max_cycle;Signal;HPM_P1;HPM_P2
2023/08/08 00:00:35;;;;;;;5.60;0.77;;;15.00;99.90;;;;;;5038421;28;20174;-76
2023/08/08 00:03:01;;;;;;;7.45;0.30;;;15.00;99.90;;;;;;5036947;28;20033;-77
2023/08/08 00:05:26;;;;;;;5.50;0.43;;;15.60;99.90;;;;;;5037360;28;20112;-78
2023/08/08 00:07:52;;;;;;;6.38;0.93;;;15.00;99.90;;;;;;5038856;28;20128;-75
2023/08/08 00:10:17;;;;;;;7.82;1.13;;;15.00;99.90;;;;;;5039019;28;20085;-78
2023/08/08 00:12:43;;;;;;;9.73;0.75;;;15.10;99.90;;;;;;5037387;28;20480;-78
2023/08/08 00:15:09;;;;;;;8.35;0.28;;;15.10;99.90;;;;;;5038505;28;20033;-78
2023/08/08 00:17:35;;;;;;;10.35;0.13;;;15.10;99.90;;;;;;5037177;28;20493;-78
2023/08/08 00:20:00;;;;;;;8.18;1.00;;;15.10;99.90;;;;;;5037369;28;20056;-78
2023/08/08 00:22:26;;;;;;;6.32;0.73;;;15.20;99.90;;;;;;5038124;28;20033;-78
2023/08/08 00:24:51;;;;;;;9.90;0.47;;;15.20;99.90;;;;;;5037986;28;20022;-78
2023/08/08 00:27:17;;;;;;;4.05;0.52;;;15.20;99.90;;;;;;5037189;28;20121;-78
2023/08/08 00:29:42;;;;;;;3.60;0.55;;;15.20;99.90;;;;;;5036994;28;20021;-78
2023/08/08 00:32:08;;;;;;;11.23;1.05;;;15.10;99.90;;;;;;5037915;28;20064;-78
2023/08/08 00:34:33;;;;;;;4.20;0.35;;;15.40;99.90;;;;;;5037901;28;20048;-78
2023/08/08 00:36:59;;;;;;;7.35;0.98;;;15.10;99.90;;;;;;5038233;28;20096;-78
2023/08/08 00:39:24;;;;;;;9.00;1.20;;;16.20;99.90;;;;;;5038655;28;20094;-78
2023/08/08 00:41:50;;;;;;;5.53;0.50;;;15.10;99.90;;;;;;5037204;28;20485;-76
2023/08/08 00:44:15;;;;;;;4.95;0.77;;;15.10;99.90;;;;;;5037258;28;20096;-78
2023/08/08 00:46:42;;;;;;;6.70;1.67;;;15.10;99.90;;;;;;5037203;28;20481;-78
2023/08/08 00:49:07;;;;;;;7.25;0.38;;;15.10;99.90;;;;;;5036634;28;20172;-78
2023/08/08 00:51:33;;;;;;;7.60;0.65;;;15.10;99.90;;;;;;5036888;28;20488;-78
2023/08/08 00:54:00;;;;;;;5.22;1.10;;;15.00;99.90;;;;;;5035934;28;20025;-78
2023/08/08 00:56:26;;;;;;;9.95;0.40;;;15.00;99.90;;;;;;5036625;28;20464;-78
2023/08/08 00:58:52;;;;;;;6.28;1.42;;;15.00;99.90;;;;;;5037528;28;20033;-78
2023/08/08 01:01:18;;;;;;;8.70;0.77;;;15.10;99.90;;;;;;5036536;28;20405;-77
2023/08/08 01:03:44;;;;;;;9.65;0.82;;;15.10;99.90;;;;;;5036294;28;20028;-78
2023/08/08 01:06:24;;;;;;;6.25;0.52;;;15.10;99.90;;;;;;5037764;28;20049;-77
2023/08/08 01:08:59;;;;;;;10.27;0.63;;;15.10;99.90;;;;;;5037533;28;20079;-77
2023/08/08 01:11:27;;;;;;;4.85;0.85;;;15.00;99.90;;;;;;5037932;28;20033;-78
2023/08/08 01:13:54;;;;;;;6.93;0.93;;;15.00;99.90;;;;;;5037320;28;20082;-78
2023/08/08 01:16:20;;;;;;;10.18;1.50;;;15.00;99.90;;;;;;5036349;28;20021;-77
2023/08/08 01:18:48;;;;;;;10.18;0.98;;;15.00;99.90;;;;;;5035659;28;20021;-78
2023/08/08 01:21:15;;;;;;;10.90;0.80;;;14.90;99.90;;;;;;5035781;28;20032;-77
2023/08/08 01:24:15;;;;;;;27.77;1.17;;;14.90;99.90;;;;;;5035465;28;20068;-77
2023/08/08 01:26:41;;;;;;;8.07;0.95;;;14.80;99.90;;;;;;5034102;28;20045;-77
2023/08/08 01:29:07;;;;;;;6.57;0.60;;;14.80;99.90;;;;;;5034245;28;20481;-77
2023/08/08 01:31:32;;;;;;;7.13;0.93;;;15.80;99.90;;;;;;5035442;28;20025;-77
2023/08/08 01:33:58;;;;;;;5.97;0.75;;;14.70;99.90;;;;;;5033986;28;20021;-77
2023/08/08 01:36:40;;;;;;;6.40;1.27;;;14.70;99.90;;;;;;5036502;28;20025;-78
2023/08/08 01:39:11;;;;;;;10.20;0.50;;;14.60;99.90;;;;;;5034090;28;20400;-77
2023/08/08 01:41:39;;;;;;;9.73;0.40;;;14.60;99.90;;;;;;5034212;28;20440;-78
2023/08/08 01:44:06;;;;;;;8.45;0.68;;;14.60;99.90;;;;;;5033638;28;20017;-78
2023/08/08 01:46:33;;;;;;;7.15;1.27;;;14.50;99.90;;;;;;5033843;28;20447;-77
2023/08/08 01:48:59;;;;;;;3.97;0.82;;;14.50;99.90;;;;;;5033880;28;20028;-77
2023/08/08 01:51:25;;;;;;;2.75;0.40;;;14.80;99.90;;;;;;5034041;28;20112;-78
2023/08/08 01:53:51;;;;;;;4.15;0.57;;;14.50;99.90;;;;;;5033649;28;20025;-78
2023/08/08 01:56:17;;;;;;;5.68;0.68;;;14.50;99.90;;;;;;5034723;28;20033;-77
2023/08/08 01:58:42;;;;;;;3.05;0.65;;;14.50;99.90;;;;;;5033599;28;20029;-77
2023/08/08 02:01:08;;;;;;;6.90;0.82;;;14.50;99.90;;;;;;5035498;28;20032;-77
2023/08/08 02:03:34;;;;;;;6.10;0.50;;;14.50;99.90;;;;;;5033633;28;20025;-77
2023/08/08 02:05:59;;;;;;;4.32;0.43;;;14.50;99.90;;;;;;5034543;28;20030;-77
2023/08/08 02:08:25;;;;;;;8.23;0.45;;;14.50;99.90;;;;;;5033780;28;20021;-78
2023/08/08 02:10:50;;;;;;;5.15;0.30;;;14.50;99.90;;;;;;5034775;28;20504;-77
2023/08/08 02:13:16;;;;;;;6.55;0.68;;;14.50;99.90;;;;;;5034492;28;20540;-77
2023/08/08 02:15:41;;;;;;;9.95;0.45;;;14.50;99.90;;;;;;5034920;28;20080;-78
2023/08/08 02:18:08;;;;;;;6.22;0.30;;;14.80;99.90;;;;;;5034477;28;20056;-77
2023/08/08 02:20:34;;;;;;;4.07;0.45;;;14.50;99.90;;;;;;5034478;28;20041;-78
2023/08/08 02:23:00;;;;;;;7.22;0.80;;;14.50;99.90;;;;;;5034313;28;20067;-78
2023/08/08 02:25:25;;;;;;;5.10;1.27;;;14.40;99.90;;;;;;5034218;28;20025;-78
2023/08/08 02:27:51;;;;;;;5.47;0.28;;;14.40;99.90;;;;;;5034693;28;20384;-77
2023/08/08 02:30:16;;;;;;;5.45;0.68;;;14.40;99.90;;;;;;5033113;28;20552;-77
2023/08/08 02:32:42;;;;;;;3.97;0.32;;;14.40;99.90;;;;;;5032979;28;20056;-78
2023/08/08 02:35:08;;;;;;;6.07;0.95;;;14.40;99.90;;;;;;5034029;28;20044;-77
2023/08/08 02:37:33;;;;;;;5.47;0.55;;;14.30;99.90;;;;;;5034320;28;20108;-77
2023/08/08 02:39:59;;;;;;;7.03;0.30;;;14.40;99.90;;;;;;5034264;28;20505;-77
2023/08/08 02:42:25;;;;;;;2.70;0.45;;;14.30;99.90;;;;;;5034035;28;20021;-77
2023/08/08 02:44:50;;;;;;;2.00;0.20;;;14.30;99.90;;;;;;5032838;28;20029;-77
2023/08/08 02:47:16;;;;;;;4.10;0.32;;;14.30;99.90;;;;;;5032944;28;20079;-78
2023/08/08 02:49:41;;;;;;;6.80;0.85;;;14.30;99.90;;;;;;5032860;28;20029;-77
2023/08/08 02:52:07;;;;;;;2.15;0.28;;;14.30;99.90;;;;;;5034626;28;20031;-78
2023/08/08 02:54:33;;;;;;;5.65;0.65;;;14.30;99.90;;;;;;5033716;28;20033;-78
2023/08/08 02:56:58;;;;;;;3.22;0.25;;;14.30;99.90;;;;;;5033917;28;20021;-77
2023/08/08 02:59:24;;;;;;;5.93;0.98;;;14.70;99.90;;;;;;5033750;28;20033;-77
2023/08/08 03:01:49;;;;;;;6.88;0.20;;;14.30;99.90;;;;;;5033956;28;20017;-77
2023/08/08 03:04:15;;;;;;;7.15;0.30;;;14.30;99.90;;;;;;5033872;28;20112;-77
2023/08/08 03:06:41;;;;;;;1.75;0.10;;;14.40;99.90;;;;;;5033622;28;20033;-78
2023/08/08 03:09:06;;;;;;;2.70;0.30;;;14.30;99.90;;;;;;5033806;28;20033;-78
2023/08/08 03:11:32;;;;;;;3.28;0.70;;;14.20;99.90;;;;;;5033675;28;20014;-77
2023/08/08 03:13:58;;;;;;;5.05;0.50;;;14.20;99.90;;;;;;5032155;28;20132;-78
2023/08/08 03:16:23;;;;;;;5.05;0.55;;;14.20;99.90;;;;;;5032436;28;20493;-77
2023/08/08 03:18:49;;;;;;;3.20;0.30;;;14.20;99.90;;;;;;5035937;28;20480;-77
2023/08/08 03:21:14;;;;;;;2.10;0.40;;;14.20;99.90;;;;;;5040638;28;20017;-77
2023/08/08 03:23:40;;;;;;;5.88;0.60;;;14.10;99.90;;;;;;5038769;28;20036;-78
2023/08/08 03:26:06;;;;;;;5.25;0.38;;;14.10;99.90;;;;;;5040092;28;20052;-78
2023/08/08 03:28:31;;;;;;;2.88;0.20;;;14.10;99.90;;;;;;5040218;28;20032;-78
2023/08/08 03:30:57;;;;;;;1.92;0.15;;;14.00;99.90;;;;;;5039060;28;20022;-76
2023/08/08 03:33:23;;;;;;;2.78;0.17;;;14.00;99.90;;;;;;5040063;28;20599;-77
2023/08/08 03:35:48;;;;;;;1.05;0.30;;;13.90;99.90;;;;;;5039817;28;20104;-77
2023/08/08 03:38:14;;;;;;;1.38;0.03;;;13.90;99.90;;;;;;5038772;28;20022;-77
2023/08/08 03:40:39;;;;;;;2.33;0.10;;;13.90;99.90;;;;;;5040231;28;20118;-77
2023/08/08 03:43:05;;;;;;;4.03;0.15;;;13.90;99.90;;;;;;5038671;28;20021;-77
2023/08/08 03:45:31;;;;;;;1.58;0.10;;;13.90;99.90;;;;;;5038726;28;20033;-77
2023/08/08 03:47:57;;;;;;;2.67;0.43;;;13.90;99.90;;;;;;5039912;28;20018;-77
2023/08/08 03:50:22;;;;;;;2.88;0.10;;;13.90;99.90;;;;;;5039851;28;20124;-77
2023/08/08 03:52:48;;;;;;;1.58;0.10;;;15.90;99.90;;;;;;5039865;28;20116;-78
2023/08/08 03:55:13;;;;;;;17.08;0.30;;;13.90;99.90;;;;;;5039899;28;20163;-77
2023/08/08 03:57:39;;;;;;;3.50;0.30;;;14.20;99.90;;;;;;5038807;28;20017;-77
2023/08/08 04:00:07;;;;;;;2.60;0.10;;;13.90;99.90;;;;;;5039950;28;20029;-78
2023/08/08 04:02:33;;;;;;;2.70;0.30;;;13.80;99.90;;;;;;5038579;28;20068;-78
2023/08/08 04:04:58;;;;;;;1.05;0.10;;;13.90;99.90;;;;;;5038422;28;20029;-77
2023/08/08 04:07:24;;;;;;;1.45;0.32;;;13.90;99.90;;;;;;5038481;28;20056;-77
2023/08/08 04:09:49;;;;;;;8.57;0.55;;;13.90;99.90;;;;;;5038496;28;20044;-78
2023/08/08 04:12:15;;;;;;;3.92;0.10;;;13.80;99.90;;;;;;5040408;28;20029;-77
2023/08/08 04:14:40;;;;;;;4.97;0.80;;;13.70;99.90;;;;;;5039702;28;20395;-77
2023/08/08 04:17:06;;;;;;;3.75;0.20;;;13.60;99.90;;;;;;5039918;28;20021;-77
2023/08/08 04:19:31;;;;;;;3.58;0.22;;;13.60;99.90;;;;;;5039667;28;20086;-78
2023/08/08 04:21:57;;;;;;;1.65;0.10;;;13.50;99.90;;;;;;5038229;28;20116;-77
2023/08/08 04:24:22;;;;;;;4.22;0.52;;;13.40;99.90;;;;;;5039778;28;20053;-77
2023/08/08 04:26:48;;;;;;;6.80;0.43;;;13.40;99.90;;;;;;5038368;28;20024;-77
2023/08/08 04:29:14;;;;;;;3.30;0.00;;;13.40;99.90;;;;;;5038849;28;20025;-78
2023/08/08 04:31:39;;;;;;;5.85;0.38;;;13.40;99.90;;;;;;5035733;28;20032;-78
2023/08/08 04:34:05;;;;;;;3.58;0.10;;;13.40;99.90;;;;;;5036227;28;20068;-77
2023/08/08 04:36:31;;;;;;;4.80;0.10;;;13.50;99.90;;;;;;5036811;28;20036;-77
2023/08/08 04:38:56;;;;;;;4.07;0.85;;;13.50;99.90;;;;;;5036361;28;20088;-77
2023/08/08 04:41:22;;;;;;;3.47;0.00;;;13.50;99.90;;;;;;5036422;28;20032;-77
2023/08/08 04:43:47;;;;;;;0.80;0.25;;;13.60;99.90;;;;;;5036169;28;20025;-78
2023/08/08 04:46:13;;;;;;;2.78;0.03;;;13.70;99.90;;;;;;5036864;28;20025;-77
2023/08/08 04:48:39;;;;;;;2.42;0.00;;;13.70;99.90;;;;;;5036767;28;20055;-78
2023/08/08 04:51:05;;;;;;;2.83;0.00;;;13.70;99.90;;;;;;5036283;28;20025;-77
2023/08/08 04:53:30;;;;;;;6.47;0.20;;;14.30;99.90;;;;;;5036274;28;20036;-77
2023/08/08 04:55:56;;;;;;;8.95;0.55;;;13.80;99.90;;;;;;5035954;28;20100;-77
2023/08/08 04:58:22;;;;;;;2.95;0.00;;;13.80;99.90;;;;;;5035874;28;20107;-77
2023/08/08 05:00:47;;;;;;;2.35;0.10;;;13.90;99.90;;;;;;5036074;28;20022;-77
2023/08/08 05:03:13;;;;;;;1.75;0.10;;;13.90;99.90;;;;;;5034588;28;20064;-77
2023/08/08 05:05:38;;;;;;;2.83;0.50;;;14.00;99.90;;;;;;5035769;28;20022;-77
2023/08/08 05:08:04;;;;;;;2.63;0.75;;;14.10;99.90;;;;;;5035811;28;20037;-78
2023/08/08 05:10:31;;;;;;;3.50;0.10;;;14.10;99.90;;;;;;5034181;28;20036;-78
2023/08/08 05:12:57;;;;;;;2.10;0.30;;;14.60;99.90;;;;;;5034440;28;20071;-77
2023/08/08 05:15:22;;;;;;;2.22;0.20;;;14.30;99.90;;;;;;5034092;28;20476;-78
2023/08/08 05:17:48;;;;;;;2.50;0.00;;;14.30;99.90;;;;;;5035622;28;20025;-77
2023/08/08 05:20:13;;;;;;;1.17;0.00;;;14.30;99.90;;;;;;5036098;28;20020;-77
2023/08/08 05:22:39;;;;;;;3.33;0.85;;;14.40;99.90;;;;;;5035486;28;20492;-77
2023/08/08 05:25:05;;;;;;;3.55;0.55;;;14.40;99.90;;;;;;5034122;28;20033;-77
2023/08/08 05:27:30;;;;;;;1.20;0.00;;;14.60;99.90;;;;;;5035447;28;20057;-77
2023/08/08 05:29:56;;;;;;;3.70;0.30;;;14.80;99.90;;;;;;5035304;28;20393;-77
2023/08/08 05:32:21;;;;;;;1.02;0.20;;;14.80;99.90;;;;;;5035275;28;20075;-78
2023/08/08 05:34:49;;;;;;;7.53;0.10;;;14.90;99.90;;;;;;5035161;28;20025;-77
2023/08/08 05:37:14;;;;;;;0.65;0.25;;;15.10;99.90;;;;;;5034937;28;20021;-77
2023/08/08 05:39:40;;;;;;;1.58;0.00;;;15.30;99.90;;;;;;5035064;28;20068;-77
2023/08/08 05:42:05;;;;;;;1.55;0.00;;;15.30;99.90;;;;;;5034988;28;20139;-78
2023/08/08 05:44:31;;;;;;;1.33;0.32;;;15.20;99.90;;;;;;5034846;28;20037;-78
2023/08/08 05:46:56;;;;;;;4.38;0.20;;;15.60;99.90;;;;;;5035039;28;20029;-78
2023/08/08 05:49:22;;;;;;;6.72;0.20;;;15.20;99.90;;;;;;5034758;28;20024;-77
2023/08/08 05:51:47;;;;;;;2.83;0.20;;;15.10;99.90;;;;;;5035127;28;20022;-77
2023/08/08 05:54:13;;;;;;;3.67;0.08;;;15.20;99.90;;;;;;5034706;28;20138;-78
2023/08/08 05:56:39;;;;;;;9.18;0.90;;;15.30;99.90;;;;;;5034770;28;20068;-77
2023/08/08 05:59:04;;;;;;;1.85;0.00;;;15.20;99.90;;;;;;5034881;28;20037;-77
2023/08/08 06:01:30;;;;;;;2.97;0.43;;;15.40;99.90;;;;;;5034995;28;20021;-77
2023/08/08 06:03:58;;;;;;;2.33;0.00;;;15.50;99.90;;;;;;5034902;28;20029;-78
2023/08/08 06:06:25;;;;;;;1.45;0.00;;;15.60;99.90;;;;;;5035167;28;20019;-77
2023/08/08 06:08:50;;;;;;;1.75;0.20;;;15.70;99.90;;;;;;5033568;28;20036;-78
2023/08/08 06:11:16;;;;;;;2.15;0.00;;;15.90;99.90;;;;;;5034599;28;20034;-77
2023/08/08 06:13:41;;;;;;;0.90;0.00;;;15.90;99.90;;;;;;5033326;28;20057;-79
2023/08/08 06:16:07;;;;;;;1.42;0.52;;;15.80;99.90;;;;;;5033300;28;20104;-77
2023/08/08 06:18:33;;;;;;;1.65;0.00;;;15.70;99.90;;;;;;5034717;28;20037;-78
2023/08/08 06:20:59;;;;;;;4.95;0.38;;;15.60;99.90;;;;;;5034628;28;20017;-78
2023/08/08 06:23:24;;;;;;;2.80;0.20;;;15.60;99.90;;;;;;5034224;28;20052;-78
2023/08/08 06:25:50;;;;;;;1.45;0.00;;;15.70;99.90;;;;;;5033330;28;20469;-78
2023/08/08 06:28:16;;;;;;;2.20;0.30;;;15.80;99.90;;;;;;5034391;28;20049;-77
2023/08/08 06:30:41;;;;;;;5.10;0.52;;;15.90;99.90;;;;;;5034826;28;20033;-78
2023/08/08 06:33:07;;;;;;;0.40;0.00;;;16.10;99.90;;;;;;5034284;28;20065;-77
2023/08/08 06:35:33;;;;;;;0.70;0.00;;;16.10;99.90;;;;;;5032596;28;20430;-77
2023/08/08 06:37:58;;;;;;;1.85;0.08;;;15.90;99.90;;;;;;5034702;28;20018;-77
2023/08/08 06:40:24;;;;;;;0.77;0.00;;;15.80;99.90;;;;;;5034168;28;20104;-77
2023/08/08 06:42:49;;;;;;;2.50;0.00;;;15.80;99.90;;;;;;5034040;28;20065;-77
2023/08/08 06:45:15;;;;;;;2.17;0.10;;;15.90;99.90;;;;;;5032603;28;20029;-78
2023/08/08 06:47:41;;;;;;;0.20;0.00;;;16.10;99.90;;;;;;5033894;28;20562;-77
2023/08/08 06:50:07;;;;;;;1.13;0.00;;;16.10;99.90;;;;;;5032520;28;20165;-77
2023/08/08 06:52:33;;;;;;;0.75;0.00;;;16.20;99.90;;;;;;5033376;28;20033;-77
2023/08/08 06:54:58;;;;;;;1.85;0.10;;;16.30;99.90;;;;;;5034201;28;20026;-77
2023/08/08 06:57:24;;;;;;;3.40;0.17;;;16.60;99.90;;;;;;5033471;28;20018;-77
2023/08/08 06:59:52;;;;;;;1.17;0.00;;;16.40;99.90;;;;;;5032321;28;20033;-77
2023/08/08 07:02:19;;;;;;;1.02;0.10;;;16.60;99.90;;;;;;5032376;28;20025;-78
2023/08/08 07:04:44;;;;;;;0.95;0.00;;;17.40;99.90;;;;;;5033659;28;20492;-77
2023/08/08 07:07:10;;;;;;;6.88;0.00;;;16.70;99.90;;;;;;5033442;28;20053;-77
2023/08/08 07:09:37;;;;;;;4.82;0.00;;;16.70;99.90;;;;;;5032124;28;20021;-77
2023/08/08 07:12:03;;;;;;;1.00;0.00;;;16.90;99.90;;;;;;5033552;28;20022;-77
2023/08/08 07:14:29;;;;;;;2.28;0.00;;;17.10;99.90;;;;;;5033156;28;20374;-77
2023/08/08 07:16:55;;;;;;;0.93;0.00;;;17.20;99.90;;;;;;5034066;28;20026;-78
2023/08/08 07:19:21;;;;;;;0.55;0.00;;;17.90;99.90;;;;;;5033462;28;20025;-77
2023/08/08 07:21:47;;;;;;;3.20;0.25;;;17.40;99.90;;;;;;5033482;28;20025;-77
2023/08/08 07:24:12;;;;;;;1.83;0.05;;;17.30;99.90;;;;;;5033282;28;20100;-77
2023/08/08 07:26:39;;;;;;;1.23;0.13;;;17.30;99.90;;;;;;5031964;28;20037;-77
2023/08/08 07:29:05;;;;;;;0.82;0.10;;;17.40;99.90;;;;;;5031874;28;20547;-77
2023/08/08 07:31:32;;;;;;;0.45;0.00;;;17.40;99.90;;;;;;5031928;28;20477;-77
2023/08/08 07:33:57;;;;;;;0.75;0.28;;;17.50;99.90;;;;;;5033047;28;20064;-78
2023/08/08 07:36:23;;;;;;;2.63;0.00;;;17.60;99.90;;;;;;5033134;28;20022;-77
2023/08/08 07:38:49;;;;;;;9.52;0.55;;;17.60;99.90;;;;;;5033263;28;20017;-77
2023/08/08 07:41:14;;;;;;;0.03;0.00;;;17.50;99.90;;;;;;5033116;28;20049;-77
2023/08/08 07:43:40;;;;;;;0.40;0.00;;;17.90;99.90;;;;;;5031828;28;20021;-78
2023/08/08 07:46:06;;;;;;;0.95;0.00;;;17.60;99.90;;;;;;5033505;28;20022;-77
2023/08/08 07:48:31;;;;;;;1.88;0.00;;;17.40;99.90;;;;;;5032877;28;20021;-77
2023/08/08 07:50:57;;;;;;;2.70;0.52;;;17.50;99.90;;;;;;5033018;28;20500;-77
2023/08/08 07:53:22;;;;;;;2.40;0.20;;;17.60;99.90;;;;;;5033140;28;20021;-77
2023/08/08 07:55:48;;;;;;;2.63;0.00;;;17.80;99.90;;;;;;5031550;28;20018;-77
2023/08/08 07:58:14;;;;;;;0.98;0.10;;;17.80;99.90;;;;;;5031647;28;20508;-77
2023/08/08 08:00:39;;;;;;;5.18;0.00;;;18.00;99.90;;;;;;5033007;28;20037;-77
2023/08/08 08:03:05;;;;;;;1.98;0.30;;;18.10;99.90;;;;;;5033182;28;20021;-77
2023/08/08 08:05:31;;;;;;;0.10;0.00;;;18.30;99.90;;;;;;5033995;28;20022;-77
2023/08/08 08:07:56;;;;;;;0.32;0.00;;;18.40;99.90;;;;;;5036698;28;20032;-77
2023/08/08 08:10:22;;;;;;;1.02;0.00;;;18.40;99.90;;;;;;5036587;28;20031;-77
2023/08/08 08:12:47;;;;;;;0.10;0.00;;;18.30;99.90;;;;;;5036476;28;20084;-77
2023/08/08 08:15:13;;;;;;;0.00;0.00;;;18.30;99.90;;;;;;5035233;28;20105;-77
2023/08/08 08:17:39;;;;;;;0.13;0.00;;;19.00;99.90;;;;;;5036434;28;20385;-77
2023/08/08 08:20:10;;;;;;;0.63;0.00;;;18.50;99.90;;;;;;5036752;28;20096;-77
2023/08/08 08:22:36;;;;;;;2.47;0.00;;;18.50;99.90;;;;;;5036849;28;20049;-77
2023/08/08 08:25:02;;;;;;;1.40;0.22;;;18.40;99.90;;;;;;5036265;28;20492;-77
2023/08/08 08:27:27;;;;;;;0.80;0.00;;;18.40;99.90;;;;;;5035135;28;20029;-77
2023/08/08 08:29:53;;;;;;;1.45;0.00;;;18.50;99.90;;;;;;5036108;28;20030;-77
2023/08/08 08:32:18;;;;;;;0.75;0.00;;;18.40;99.90;;;;;;5034897;28;20022;-77
2023/08/08 08:34:44;;;;;;;1.70;0.00;;;18.40;99.90;;;;;;5036040;28;20029;-77
2023/08/08 08:37:10;;;;;;;0.00;0.00;;;18.50;99.90;;;;;;5036572;28;20036;-77
2023/08/08 08:39:35;;;;;;;0.35;0.00;;;18.60;99.90;;;;;;5035965;28;20017;-77
2023/08/08 08:42:03;;;;;;;1.75;0.10;;;18.70;99.90;;;;;;5036530;28;20444;-76
2023/08/08 08:44:31;;;;;;;0.70;0.00;;;18.70;99.90;;;;;;5036737;28;20028;-77
2023/08/08 08:47:02;;;;;;;0.28;0.00;;;18.80;99.90;;;;;;5036912;28;20549;-77
2023/08/08 08:49:30;;;;;;;0.22;0.00;;;18.80;99.90;;;;;;5037136;28;20025;-78
2023/08/08 08:52:00;;;;;;;0.22;0.00;;;18.80;99.90;;;;;;5036999;28;20416;-77
2023/08/08 08:54:29;;;;;;;0.00;0.00;;;18.80;99.90;;;;;;5036527;28;20473;-78
2023/08/08 08:56:55;;;;;;;;;;;18.80;99.90;;;;;;5035824;28;20029;-77
2023/08/08 08:59:20;;;;;;;0.77;0.00;;;18.70;99.90;;;;;;5036693;28;19913;-77
2023/08/08 09:01:46;;;;;;;1.10;0.00;;;18.60;99.90;;;;;;5036474;28;20109;-78
2023/08/08 09:04:17;;;;;;;1.73;0.10;;;18.60;99.90;;;;;;5036686;28;20148;-77
2023/08/08 09:06:43;;;;;;;1.98;0.00;;;18.60;99.90;;;;;;5036642;28;20392;-76
2023/08/08 09:09:09;;;;;;;0.85;0.00;;;18.60;99.90;;;;;;5035090;28;20029;-77
2023/08/08 09:11:34;;;;;;;1.30;0.00;;;18.70;99.90;;;;;;5035266;28;20465;-77
2023/08/08 09:14:02;;;;;;;0.10;0.00;;;18.60;99.90;;;;;;5036091;28;20026;-78
2023/08/08 09:16:27;;;;;;;0.20;0.00;;;18.70;99.90;;;;;;5036015;28;20021;-77
2023/08/08 09:18:53;;;;;;;0.30;0.00;;;19.20;99.90;;;;;;5035665;28;20030;-77
2023/08/08 09:21:19;;;;;;;0.13;0.00;;;18.70;99.90;;;;;;5034807;28;20025;-78
2023/08/08 09:23:44;;;;;;;2.33;0.10;;;18.80;99.90;;;;;;5036238;28;20028;-77
2023/08/08 09:26:12;;;;;;;1.35;0.00;;;19.10;99.90;;;;;;5034335;28;20024;-77
2023/08/08 09:28:38;;;;;;;0.00;0.00;;;19.20;99.90;;;;;;5035747;28;20017;-76
2023/08/08 09:31:03;;;;;;;2.63;0.10;;;19.10;99.90;;;;;;5036308;28;20445;-77
2023/08/08 09:33:30;;;;;;;1.20;0.00;;;19.10;99.90;;;;;;5036016;28;20032;-77
2023/08/08 09:35:55;;;;;;;0.95;0.25;;;19.40;99.90;;;;;;5033857;28;20052;-77
2023/08/08 09:38:21;;;;;;;4.28;0.03;;;19.60;99.90;;;;;;5033914;28;20022;-74
2023/08/08 09:40:46;;;;;;;2.03;0.00;;;19.50;99.90;;;;;;5035108;28;20588;-75
2023/08/08 09:43:12;;;;;;;3.40;0.00;;;19.20;99.90;;;;;;5035012;28;20465;-75
2023/08/08 09:45:38;;;;;;;0.10;0.00;;;19.20;99.90;;;;;;5035103;28;20100;-73
2023/08/08 09:48:06;;;;;;;2.40;0.00;;;19.20;99.90;;;;;;5034782;28;20029;-74
2023/08/08 09:50:33;;;;;;;0.30;0.00;;;19.30;99.90;;;;;;5034925;28;20033;-75
2023/08/08 09:53:00;;;;;;;0.95;0.00;;;19.40;99.90;;;;;;5035256;28;20049;-75
2023/08/08 09:55:26;;;;;;;0.10;0.00;;;19.30;99.90;;;;;;5034715;28;20034;-75
2023/08/08 09:57:53;;;;;;;0.25;0.00;;;19.20;99.90;;;;;;5034416;28;20536;-75
2023/08/08 10:00:20;;;;;;;1.63;0.00;;;19.30;99.90;;;;;;5033389;28;20477;-75
2023/08/08 10:02:47;;;;;;;0.10;0.00;;;19.30;99.90;;;;;;5034618;28;20018;-75
2023/08/08 10:05:14;;;;;;;1.02;0.00;;;19.20;99.90;;;;;;5034507;28;20029;-75
2023/08/08 10:07:41;;;;;;;3.40;0.00;;;19.20;99.90;;;;;;5034732;28;20159;-74
2023/08/08 10:10:09;;;;;;;0.63;0.00;;;19.30;99.90;;;;;;5034376;28;20025;-75
2023/08/08 10:12:40;;;;;;;0.10;0.00;;;19.60;99.90;;;;;;5033033;28;20044;-74
2023/08/08 10:15:11;;;;;;;0.00;0.00;;;19.60;99.90;;;;;;5034376;28;20705;-74
2023/08/08 10:17:38;;;;;;;1.52;0.00;;;19.60;99.90;;;;;;5034996;28;20574;-74
2023/08/08 10:20:11;;;;;;;0.05;0.00;;;19.60;99.90;;;;;;5033102;28;20021;-75
2023/08/08 10:22:41;;;;;;;3.40;0.00;;;19.80;99.90;;;;;;5034658;28;20026;-75
2023/08/08 10:25:08;;;;;;;0.32;0.10;;;20.10;99.90;;;;;;5034384;28;20392;-74
2023/08/08 10:27:35;;;;;;;0.30;0.00;;;20.30;99.90;;;;;;5033645;28;20396;-75
2023/08/08 10:30:10;;;;;;;0.32;0.00;;;20.20;99.90;;;;;;5034200;28;20021;-75
2023/08/08 10:32:41;;;;;;;0.10;0.00;;;19.90;99.90;;;;;;5032825;28;20392;-75
2023/08/08 10:35:09;;;;;;;1.13;0.00;;;19.90;99.90;;;;;;5034054;28;20028;-75
2023/08/08 10:37:36;;;;;;;0.00;0.00;;;19.80;99.90;;;;;;5034234;28;20048;-75
2023/08/08 10:40:08;;;;;;;0.08;0.00;;;19.80;99.90;;;;;;5033141;28;20057;-75
2023/08/08 10:42:42;;;;;;;0.00;0.00;;;21.10;99.90;;;;;;5034098;28;20101;-74
2023/08/08 10:45:12;;;;;;;0.00;0.00;;;20.00;99.90;;;;;;5034101;28;20041;-74
2023/08/08 10:47:37;;;;;;;1.13;0.00;;;20.20;99.90;;;;;;5033847;28;20044;-75
2023/08/08 10:50:06;;;;;;;2.13;0.00;;;20.20;99.90;;;;;;5033777;28;20064;-74
2023/08/08 10:52:35;;;;;;;1.50;0.10;;;20.40;99.90;;;;;;5032717;28;20029;-74
2023/08/08 10:55:02;;;;;;;0.90;0.20;;;20.40;99.90;;;;;;5033834;28;20453;-75
2023/08/08 10:57:28;;;;;;;0.17;0.00;;;20.50;99.90;;;;;;5033987;28;20014;-74
2023/08/08 10:59:54;;;;;;;0.00;0.00;;;20.10;99.90;;;;;;5033547;28;20025;-74
2023/08/08 11:02:21;;;;;;;0.20;0.10;;;20.20;99.90;;;;;;5033837;28;20152;-74
2023/08/08 11:04:49;;;;;;;0.32;0.00;;;20.40;99.90;;;;;;5033699;28;20396;-75
2023/08/08 11:07:15;;;;;;;1.10;0.10;;;20.50;99.90;;;;;;5033838;28;20022;-74
2023/08/08 11:09:43;;;;;;;7.60;0.35;;;20.70;99.90;;;;;;5033676;28;20457;-75
2023/08/08 11:12:15;;;;;;;0.68;0.00;;;20.90;99.90;;;;;;5033535;28;20501;-75
2023/08/08 11:14:41;;;;;;;0.70;0.00;;;21.10;99.90;;;;;;5033496;28;20037;-74
2023/08/08 11:17:07;;;;;;;1.13;0.00;;;21.20;99.90;;;;;;5033506;28;20080;-74
2023/08/08 11:19:39;;;;;;;0.73;0.10;;;21.30;99.90;;;;;;5033646;28;20037;-74
2023/08/08 11:22:10;;;;;;;0.40;0.10;;;21.30;99.90;;;;;;5033704;28;20412;-74
2023/08/08 11:24:36;;;;;;;0.75;0.00;;;21.20;99.90;;;;;;5033519;28;20026;-75
2023/08/08 11:27:01;;;;;;;0.03;0.00;;;21.00;99.90;;;;;;5033694;28;20021;-75
2023/08/08 11:29:30;;;;;;;0.50;0.00;;;21.20;99.90;;;;;;5033690;28;20079;-75
2023/08/08 11:31:59;;;;;;;0.55;0.00;;;21.30;99.90;;;;;;5034402;28;20030;-75
2023/08/08 11:34:24;;;;;;;3.50;0.32;;;21.30;99.90;;;;;;5033477;28;20025;-75
2023/08/08 11:36:50;;;;;;;4.90;0.10;;;21.70;99.90;;;;;;5033211;28;20021;-75
2023/08/08 11:39:18;;;;;;;4.60;0.17;;;22.00;99.90;;;;;;5034599;28;20013;-75
2023/08/08 11:41:45;;;;;;;0.80;0.00;;;22.10;99.90;;;;;;5038031;28;20104;-75
2023/08/08 11:44:10;;;;;;;0.20;0.00;;;22.50;99.90;;;;;;5037351;28;20040;-75
2023/08/08 11:46:45;;;;;;;7.32;0.00;;;22.70;99.90;;;;;;5037640;28;20025;-77
2023/08/08 11:49:11;;;;;;;0.00;0.00;;;23.00;99.90;;;;;;5036327;28;20424;-76
2023/08/08 11:51:36;;;;;;;0.82;0.00;;;22.90;99.90;;;;;;5037505;28;20056;-76
2023/08/08 11:54:04;;;;;;;0.10;0.00;;;23.10;99.90;;;;;;5037621;28;20033;-77
2023/08/08 11:56:32;;;;;;;1.17;0.20;;;23.40;99.90;;;;;;5036598;28;20477;-77
2023/08/08 11:58:59;;;;;;;1.08;0.00;;;23.20;99.90;;;;;;5037153;28;20029;-77
2023/08/08 12:01:27;;;;;;;0.80;0.00;;;22.70;99.90;;;;;;5035967;28;20412;-77
2023/08/08 12:03:53;;;;;;;0.20;0.00;;;22.40;99.90;;;;;;5036843;28;20053;-77
2023/08/08 12:06:19;;;;;;;0.40;0.10;;;22.30;99.90;;;;;;5035931;28;20017;-77
2023/08/08 12:08:47;;;;;;;0.30;0.00;;;22.00;99.90;;;;;;5037085;28;20033;-76
2023/08/08 12:11:14;;;;;;;2.30;0.43;;;21.80;99.90;;;;;;5035782;28;20060;-77
2023/08/08 12:13:44;;;;;;;0.80;0.00;;;21.40;99.90;;;;;;5036902;28;20148;-77
2023/08/08 12:16:11;;;;;;;1.92;0.00;;;21.40;99.90;;;;;;5035710;28;20030;-77
2023/08/08 12:18:38;;;;;;;1.15;0.00;;;21.70;99.90;;;;;;5036759;28;20452;-76
2023/08/08 12:21:08;;;;;;;1.75;0.10;;;22.20;99.90;;;;;;5035307;28;20499;-77
2023/08/08 12:23:35;;;;;;;0.52;0.00;;;22.30;99.90;;;;;;5036967;28;20010;-77
2023/08/08 12:26:04;;;;;;;0.75;0.20;;;22.30;99.90;;;;;;5037285;28;20045;-77
2023/08/08 12:28:30;;;;;;;0.00;0.00;;;22.30;99.90;;;;;;5036395;28;20029;-77
2023/08/08 12:30:56;;;;;;;0.57;0.00;;;22.00;99.90;;;;;;5037337;28;20381;-77
2023/08/08 12:33:21;;;;;;;3.38;0.03;;;21.80;99.90;;;;;;5036925;28;20484;-77
2023/08/08 12:35:47;;;;;;;1.92;0.00;;;21.80;99.90;;;;;;5037300;28;20105;-77
2023/08/08 12:38:14;;;;;;;3.30;0.28;;;22.00;99.90;;;;;;5035017;28;20112;-76
2023/08/08 12:40:39;;;;;;;0.85;0.08;;;22.20;99.90;;;;;;5034970;28;20033;-76
2023/08/08 12:43:05;;;;;;;0.70;0.00;;;22.30;99.90;;;;;;5036212;28;20013;-76